createdAt,value
2022-08-12T00:00:21.953Z,26.70
2022-08-12T00:05:24.705Z,26.50
2022-08-12T00:10:26.681Z,26.50
2022-08-12T00:15:29.230Z,26.60
2022-08-12T00:20:30.996Z,26.40
2022-08-12T00:26:05.755Z,26.60
2022-08-12T00:31:03.758Z,26.60
2022-08-12T00:36:05.844Z,26.70
2022-08-12T00:41:16.519Z,26.50
2022-08-12T00:46:18.214Z,26.10
2022-08-12T00:51:20.757Z,26.30
2022-08-12T00:56:24.025Z,26.50
2022-08-12T01:01:26.711Z,26.00
2022-08-12T01:06:30.296Z,26.20
2022-08-12T01:11:32.332Z,25.60
2022-08-12T01:16:34.245Z,25.70
2022-08-12T01:22:00.994Z,25.90
2022-08-12T01:27:07.500Z,26.40
2022-08-12T01:32:13.122Z,25.80
2022-08-12T01:37:19.032Z,26.00
2022-08-12T01:42:22.539Z,26.40
2022-08-12T01:47:48.265Z,25.70
2022-08-12T01:53:02.946Z,26.10
2022-08-12T01:58:26.802Z,25.90
2022-08-12T02:03:41.178Z,26.20
2022-08-12T02:08:47.658Z,25.80
2022-08-12T02:14:27.835Z,25.00
2022-08-12T02:20:01.195Z,24.60
2022-08-12T02:25:29.341Z,24.70
2022-08-12T02:30:41.636Z,24.30
2022-08-12T02:35:44.840Z,24.10
2022-08-12T02:40:51.763Z,24.10
2022-08-12T02:46:00.555Z,24.00
2022-08-12T02:51:06.563Z,24.10
2022-08-12T02:56:08.329Z,24.20
2022-08-12T03:01:10.174Z,24.50
2022-08-12T03:06:22.498Z,24.10
2022-08-12T03:11:50.241Z,23.80
2022-08-12T03:17:07.073Z,23.90
2022-08-12T03:22:11.247Z,23.60
2022-08-12T03:27:14.375Z,24.10
2022-08-12T03:32:36.178Z,23.70
2022-08-12T03:37:40.094Z,23.40
2022-08-12T03:42:46.642Z,23.80
2022-08-12T03:47:59.347Z,23.20
2022-08-12T03:53:02.777Z,23.60
2022-08-12T03:58:04.995Z,23.70
2022-08-12T04:03:08.794Z,23.70
2022-08-12T04:08:14.321Z,23.50
2022-08-12T04:13:22.235Z,23.20
2022-08-12T04:18:24.757Z,23.20
2022-08-12T04:23:26.819Z,23.40
2022-08-12T04:28:28.773Z,23.10
2022-08-12T04:33:30.944Z,23.20
2022-08-12T04:38:34.351Z,23.20
2022-08-12T04:43:59.672Z,23.20
2022-08-12T04:48:57.928Z,23.20
2022-08-12T04:54:04.663Z,23.30
2022-08-12T04:59:06.380Z,23.10
2022-08-12T05:04:09.150Z,23.40
2022-08-12T05:09:13.333Z,23.30
2022-08-12T05:14:15.357Z,23.30
2022-08-12T05:19:18.578Z,23.20
2022-08-12T05:24:24.405Z,23.30
2022-08-12T05:30:05.743Z,23.60
2022-08-12T05:34:48.800Z,23.60
2022-08-12T05:39:50.969Z,24.10
2022-08-12T05:44:52.731Z,24.00
2022-08-12T05:49:54.585Z,24.10
2022-08-12T05:54:57.868Z,23.80
2022-08-12T05:59:59.791Z,24.20
2022-08-12T06:05:01.935Z,24.30
2022-08-12T06:10:03.937Z,24.10
2022-08-12T06:15:06.139Z,24.40
2022-08-12T06:20:26.279Z,25.00
2022-08-12T06:25:30.147Z,24.80
2022-08-12T06:30:37.939Z,25.00
2022-08-12T06:35:48.427Z,25.10
2022-08-12T06:40:59.335Z,25.40
2022-08-12T06:46:01.320Z,25.50
2022-08-12T06:51:03.932Z,25.60
2022-08-12T06:56:09.276Z,25.50
2022-08-12T07:01:14.022Z,25.50
2022-08-12T07:06:15.924Z,25.50
2022-08-12T07:11:17.669Z,25.90
2022-08-12T07:16:20.703Z,26.20
2022-08-12T07:21:22.442Z,26.50
2022-08-12T07:26:24.224Z,26.80
2022-08-12T07:31:28.535Z,27.20
2022-08-12T07:36:30.748Z,27.10
2022-08-12T07:41:32.477Z,27.00
2022-08-12T07:46:40.307Z,27.40
2022-08-12T07:51:43.925Z,27.40
2022-08-12T07:56:45.671Z,27.30
2022-08-12T08:01:47.477Z,27.10
2022-08-12T08:06:50.081Z,27.30
2022-08-12T08:11:53.421Z,27.20
2022-08-12T08:16:59.971Z,27.20
2022-08-12T08:22:01.751Z,27.10
2022-08-12T08:27:03.602Z,27.20
2022-08-12T08:32:05.405Z,27.20
2022-08-12T08:37:10.532Z,27.10
2022-08-12T08:42:18.693Z,27.30
2022-08-12T08:47:22.026Z,27.30
2022-08-12T08:52:38.904Z,27.20
2022-08-12T08:57:44.742Z,27.50
2022-08-12T09:02:49.098Z,27.70
2022-08-12T09:08:12.089Z,27.80
2022-08-12T09:13:23.325Z,28.10
2022-08-12T09:18:33.583Z,27.80
2022-08-12T09:24:01.274Z,28.30
2022-08-12T09:28:58.459Z,28.60
2022-08-12T09:34:28.503Z,28.20
2022-08-12T09:40:01.716Z,27.90
2022-08-12T09:44:46.041Z,28.30
2022-08-12T09:50:08.292Z,27.90
2022-08-12T09:56:05.459Z,27.70
2022-08-12T10:00:52.030Z,27.90
2022-08-12T10:06:26.776Z,27.80
2022-08-12T10:11:20.033Z,27.90
2022-08-12T10:16:27.258Z,28.60
2022-08-12T10:21:37.614Z,29.70
2022-08-12T10:26:41.530Z,29.80
2022-08-12T10:31:47.372Z,30.40
2022-08-12T10:37:22.719Z,30.50
2022-08-12T10:42:29.461Z,30.30
2022-08-12T10:48:20.585Z,30.50
2022-08-12T10:52:58.279Z,30.70
2022-08-12T10:58:14.690Z,31.20
2022-08-12T11:04:31.477Z,31.20
2022-08-12T11:08:46.507Z,31.10
2022-08-12T11:13:49.357Z,31.00
2022-08-12T11:18:55.567Z,30.50
2022-08-12T11:23:58.593Z,31.30
2022-08-12T11:29:06.050Z,31.40
2022-08-12T11:34:53.780Z,31.50
2022-08-12T11:45:10.354Z,32.00
2022-08-12T11:50:19.034Z,32.00
2022-08-12T11:55:23.258Z,31.80
2022-08-12T12:05:46.940Z,32.60
2022-08-12T12:10:50.730Z,32.50
2022-08-12T12:15:53.119Z,32.20
2022-08-12T12:20:58.134Z,32.60
2022-08-12T12:26:08.148Z,32.60
2022-08-12T12:31:14.994Z,31.90
2022-08-12T12:36:33.286Z,32.30
2022-08-12T12:42:45.556Z,32.50
2022-08-12T12:46:57.323Z,32.90
2022-08-12T12:52:18.972Z,32.70
2022-08-12T12:57:21.593Z,33.20
2022-08-12T13:02:54.202Z,33.20
2022-08-12T13:08:00.782Z,33.70
2022-08-12T13:14:07.332Z,33.50
2022-08-12T13:18:28.514Z,33.40
2022-08-12T13:23:36.272Z,33.10
2022-08-12T13:28:42.897Z,33.10
2022-08-12T13:34:28.479Z,33.60
2022-08-12T13:39:07.197Z,33.30
2022-08-12T13:44:10.648Z,33.40
2022-08-12T13:49:17.415Z,33.50
2022-08-12T13:54:26.439Z,33.00
2022-08-12T13:59:28.718Z,32.80
2022-08-12T14:04:56.293Z,33.10
2022-08-12T14:09:58.843Z,32.70
2022-08-12T14:15:00.773Z,33.60
2022-08-12T14:20:02.601Z,33.50
2022-08-12T14:25:04.568Z,33.60
2022-08-12T14:30:17.201Z,33.00
2022-08-12T14:35:29.085Z,33.30
2022-08-12T14:40:43.447Z,33.00
2022-08-12T14:45:49.328Z,33.40
2022-08-12T14:51:03.183Z,34.00
2022-08-12T15:01:36.110Z,32.50
2022-08-12T15:06:52.353Z,32.50
2022-08-12T15:12:03.296Z,32.90
2022-08-12T15:17:05.984Z,32.60
2022-08-12T15:22:37.233Z,32.50
2022-08-12T15:27:31.846Z,32.50
2022-08-12T15:32:53.016Z,32.70
2022-08-12T15:38:10.256Z,32.30
2022-08-12T15:43:14.024Z,32.40
2022-08-12T15:48:35.834Z,32.00
2022-08-12T15:53:37.704Z,31.70
2022-08-12T15:58:40.804Z,31.40
2022-08-12T16:03:46.351Z,31.10
2022-08-12T16:09:02.530Z,30.50
2022-08-12T16:14:04.323Z,30.10
2022-08-12T16:19:09.451Z,29.80
2022-08-12T16:24:20.916Z,29.50
2022-08-12T16:29:23.763Z,29.50
2022-08-12T16:34:54.434Z,29.20
2022-08-12T16:40:00.704Z,29.30
2022-08-12T16:45:03.053Z,29.20
2022-08-12T16:50:07.120Z,28.90
2022-08-12T16:55:12.967Z,28.90
2022-08-12T17:00:16.719Z,28.90
2022-08-12T17:05:18.484Z,28.80
2022-08-12T17:10:36.027Z,28.80
2022-08-12T17:15:57.656Z,28.50
2022-08-12T17:21:01.739Z,27.60
2022-08-12T17:26:04.516Z,27.30
2022-08-12T17:31:07.069Z,27.00
2022-08-12T17:36:10.600Z,26.70
2022-08-12T17:41:22.975Z,26.60
2022-08-12T17:46:34.323Z,26.70
2022-08-12T17:51:50.254Z,26.40
2022-08-12T17:56:52.910Z,26.30
2022-08-12T18:02:00.715Z,26.10
2022-08-12T18:07:03.201Z,25.60
2022-08-12T18:12:09.176Z,25.20
2022-08-12T18:17:12.375Z,24.80
2022-08-12T18:22:14.269Z,24.70
2022-08-12T18:27:30.317Z,24.90
2022-08-12T18:32:58.618Z,24.50
2022-08-12T18:38:00.828Z,24.50
2022-08-12T18:43:05.310Z,24.50
2022-08-12T18:48:07.708Z,24.90
2022-08-12T18:53:10.745Z,24.90
2022-08-12T18:58:38.355Z,25.10
2022-08-12T19:04:02.451Z,25.30
2022-08-12T19:09:05.720Z,25.00
2022-08-12T19:14:11.929Z,25.20
2022-08-12T19:19:18.385Z,25.00
2022-08-12T19:24:21.371Z,24.90
2022-08-12T19:29:24.992Z,24.70
2022-08-12T19:35:53.805Z,24.50
2022-08-12T19:40:07.983Z,24.80
2022-08-12T19:45:15.857Z,24.70
2022-08-12T19:50:20.046Z,24.70
2022-08-12T19:55:24.809Z,24.50
2022-08-12T20:00:28.359Z,24.40
2022-08-12T20:06:05.390Z,24.30
2022-08-12T20:12:15.110Z,24.50
2022-08-12T20:16:51.132Z,24.70
2022-08-12T20:21:43.655Z,24.50
2022-08-12T20:26:46.864Z,24.50
2022-08-12T20:31:51.875Z,24.40
2022-08-12T20:36:57.200Z,24.50
2022-08-12T20:42:10.060Z,24.40
2022-08-12T20:47:18.658Z,24.60
2022-08-12T20:52:22.163Z,24.70
2022-08-12T20:57:24.634Z,24.60
2022-08-12T21:02:39.557Z,24.60
2022-08-12T21:07:51.477Z,24.50
2022-08-12T21:12:54.154Z,24.50
2022-08-12T21:18:15.736Z,24.50
2022-08-12T21:23:25.646Z,24.60
2022-08-12T21:28:32.931Z,24.40
2022-08-12T21:33:58.575Z,24.30
2022-08-12T21:39:18.934Z,24.20
2022-08-12T21:45:44.682Z,24.40
2022-08-12T21:49:55.408Z,24.50
2022-08-12T21:55:07.961Z,24.40
2022-08-12T22:00:18.925Z,24.50
2022-08-12T22:05:20.685Z,24.70
2022-08-12T22:10:28.253Z,23.90
2022-08-12T22:15:31.038Z,23.60
2022-08-12T22:20:32.963Z,23.10
2022-08-12T22:25:34.671Z,23.40
2022-08-12T22:30:41.820Z,23.80
2022-08-12T22:35:58.892Z,24.10
2022-08-12T22:41:07.347Z,23.60
2022-08-12T22:46:12.081Z,23.50
2022-08-12T22:51:13.966Z,23.10
2022-08-12T22:56:16.930Z,23.00
2022-08-12T23:01:21.461Z,23.00
2022-08-12T23:06:40.387Z,22.60
2022-08-12T23:11:42.606Z,22.40
2022-08-12T23:16:46.167Z,22.20
2022-08-12T23:22:06.077Z,22.70
2022-08-12T23:27:14.668Z,22.70
2022-08-12T23:32:35.329Z,22.40
2022-08-12T23:37:47.036Z,22.00
2022-08-12T23:42:55.321Z,21.90
2022-08-12T23:47:57.463Z,22.00
2022-08-12T23:52:59.317Z,22.20
2022-08-12T23:58:22.878Z,21.70
